sensor_id;sensor_type;location;lat;lon;timestamp;P1;durP1;ratioP1;P2;durP2;ratioP2
6420;SDS011;3243;50.958;7.012;2023-02-15T00:01:55;38.83;;;23.47;;
6420;SDS011;3243;50.958;7.012;2023-02-15T00:04:22;36.83;;;23.23;;
6420;SDS011;3243;50.958;7.012;2023-02-15T00:07:11;38.53;;;22.90;;
6420;SDS011;3243;50.958;7.012;2023-02-15T00:09:38;39.63;;;22.30;;
6420;SDS011;3243;50.958;7.012;2023-02-15T00:12:05;40.17;;;24.53;;
6420;SDS011;3243;50.958;7.012;2023-02-15T00:14:32;40.13;;;23.87;;
6420;SDS011;3243;50.958;7.012;2023-02-15T00:16:59;43.80;;;25.63;;
6420;SDS011;3243;50.958;7.012;2023-02-15T00:19:26;41.27;;;23.60;;
6420;SDS011;3243;50.958;7.012;2023-02-15T00:21:52;40.63;;;23.37;;
6420;SDS011;3243;50.958;7.012;2023-02-15T00:24:19;42.97;;;24.83;;
6420;SDS011;3243;50.958;7.012;2023-02-15T00:26:46;43.13;;;23.57;;
6420;SDS011;3243;50.958;7.012;2023-02-15T00:29:14;39.47;;;23.77;;
6420;SDS011;3243;50.958;7.012;2023-02-15T00:31:42;40.83;;;23.17;;
6420;SDS011;3243;50.958;7.012;2023-02-15T00:36:47;41.80;;;24.37;;
6420;SDS011;3243;50.958;7.012;2023-02-15T00:39:14;39.67;;;24.17;;
6420;SDS011;3243;50.958;7.012;2023-02-15T00:41:42;41.67;;;24.87;;
6420;SDS011;3243;50.958;7.012;2023-02-15T00:44:09;41.07;;;24.03;;
6420;SDS011;3243;50.958;7.012;2023-02-15T00:46:36;43.97;;;24.00;;
6420;SDS011;3243;50.958;7.012;2023-02-15T00:49:03;37.60;;;22.23;;
6420;SDS011;3243;50.958;7.012;2023-02-15T00:51:31;42.27;;;24.87;;
6420;SDS011;3243;50.958;7.012;2023-02-15T00:53:58;41.93;;;25.23;;
6420;SDS011;3243;50.958;7.012;2023-02-15T00:56:25;37.10;;;24.10;;
6420;SDS011;3243;50.958;7.012;2023-02-15T00:58:54;38.20;;;23.00;;
6420;SDS011;3243;50.958;7.012;2023-02-15T01:01:21;41.30;;;23.90;;
6420;SDS011;3243;50.958;7.012;2023-02-15T01:03:49;42.97;;;25.07;;
6420;SDS011;3243;50.958;7.012;2023-02-15T01:06:16;41.43;;;25.17;;
6420;SDS011;3243;50.958;7.012;2023-02-15T01:08:43;44.00;;;24.17;;
6420;SDS011;3243;50.958;7.012;2023-02-15T01:11:13;41.70;;;25.10;;
6420;SDS011;3243;50.958;7.012;2023-02-15T01:13:55;38.93;;;22.23;;
6420;SDS011;3243;50.958;7.012;2023-02-15T01:16:24;40.20;;;23.93;;
6420;SDS011;3243;50.958;7.012;2023-02-15T01:18:52;41.97;;;23.67;;
6420;SDS011;3243;50.958;7.012;2023-02-15T01:21:21;38.80;;;22.83;;
6420;SDS011;3243;50.958;7.012;2023-02-15T01:23:49;42.10;;;23.57;;
6420;SDS011;3243;50.958;7.012;2023-02-15T01:26:16;42.20;;;24.57;;
6420;SDS011;3243;50.958;7.012;2023-02-15T01:28:43;41.83;;;24.93;;
6420;SDS011;3243;50.958;7.012;2023-02-15T01:31:13;42.07;;;24.10;;
6420;SDS011;3243;50.958;7.012;2023-02-15T01:33:42;39.87;;;23.73;;
6420;SDS011;3243;50.958;7.012;2023-02-15T01:36:08;40.83;;;24.53;;
6420;SDS011;3243;50.958;7.012;2023-02-15T01:38:35;42.43;;;24.50;;
6420;SDS011;3243;50.958;7.012;2023-02-15T01:41:02;41.73;;;24.70;;
6420;SDS011;3243;50.958;7.012;2023-02-15T01:43:50;41.73;;;23.83;;
6420;SDS011;3243;50.958;7.012;2023-02-15T01:46:28;41.37;;;23.37;;
6420;SDS011;3243;50.958;7.012;2023-02-15T01:49:10;43.53;;;24.23;;
6420;SDS011;3243;50.958;7.012;2023-02-15T01:51:41;41.37;;;24.73;;
6420;SDS011;3243;50.958;7.012;2023-02-15T01:56:55;41.37;;;23.70;;
6420;SDS011;3243;50.958;7.012;2023-02-15T01:59:28;35.70;;;21.50;;
6420;SDS011;3243;50.958;7.012;2023-02-15T02:01:57;39.20;;;22.97;;
6420;SDS011;3243;50.958;7.012;2023-02-15T02:07:09;43.13;;;23.50;;
6420;SDS011;3243;50.958;7.012;2023-02-15T02:09:38;43.03;;;24.13;;
6420;SDS011;3243;50.958;7.012;2023-02-15T02:12:05;37.10;;;22.63;;
6420;SDS011;3243;50.958;7.012;2023-02-15T02:14:33;41.93;;;23.57;;
6420;SDS011;3243;50.958;7.012;2023-02-15T02:27:39;39.10;;;22.60;;
6420;SDS011;3243;50.958;7.012;2023-02-15T02:30:51;40.87;;;23.23;;
6420;SDS011;3243;50.958;7.012;2023-02-15T02:44:02;39.27;;;22.17;;
6420;SDS011;3243;50.958;7.012;2023-02-15T02:46:49;39.83;;;22.90;;
6420;SDS011;3243;50.958;7.012;2023-02-15T02:49:27;41.30;;;23.70;;
6420;SDS011;3243;50.958;7.012;2023-02-15T02:55:01;37.87;;;22.00;;
6420;SDS011;3243;50.958;7.012;2023-02-15T02:57:30;41.87;;;23.03;;
6420;SDS011;3243;50.958;7.012;2023-02-15T02:59:58;36.87;;;22.50;;
6420;SDS011;3243;50.958;7.012;2023-02-15T03:02:30;44.50;;;23.40;;
6420;SDS011;3243;50.958;7.012;2023-02-15T03:05:03;42.20;;;23.47;;
6420;SDS011;3243;50.958;7.012;2023-02-15T03:07:33;38.67;;;22.33;;
6420;SDS011;3243;50.958;7.012;2023-02-15T03:10:03;37.17;;;23.07;;
6420;SDS011;3243;50.958;7.012;2023-02-15T03:12:34;37.17;;;21.57;;
6420;SDS011;3243;50.958;7.012;2023-02-15T03:15:16;41.23;;;23.07;;
6420;SDS011;3243;50.958;7.012;2023-02-15T03:17:48;38.20;;;21.80;;
6420;SDS011;3243;50.958;7.012;2023-02-15T03:20:29;41.27;;;22.33;;
6420;SDS011;3243;50.958;7.012;2023-02-15T03:23:13;37.87;;;21.73;;
6420;SDS011;3243;50.958;7.012;2023-02-15T03:25:44;37.30;;;21.97;;
6420;SDS011;3243;50.958;7.012;2023-02-15T03:28:19;38.47;;;21.67;;
6420;SDS011;3243;50.958;7.012;2023-02-15T03:30:52;36.07;;;20.50;;
6420;SDS011;3243;50.958;7.012;2023-02-15T03:33:21;37.73;;;22.47;;
6420;SDS011;3243;50.958;7.012;2023-02-15T03:35:54;37.07;;;22.13;;
6420;SDS011;3243;50.958;7.012;2023-02-15T03:38:32;39.00;;;22.50;;
6420;SDS011;3243;50.958;7.012;2023-02-15T03:41:04;40.97;;;22.00;;
6420;SDS011;3243;50.958;7.012;2023-02-15T03:46:33;36.67;;;22.00;;
6420;SDS011;3243;50.958;7.012;2023-02-15T03:49:08;38.17;;;21.90;;
6420;SDS011;3243;50.958;7.012;2023-02-15T03:51:40;40.17;;;22.27;;
6420;SDS011;3243;50.958;7.012;2023-02-15T03:54:12;38.90;;;21.37;;
6420;SDS011;3243;50.958;7.012;2023-02-15T03:57:06;38.20;;;21.83;;
6420;SDS011;3243;50.958;7.012;2023-02-15T03:59:53;39.00;;;22.67;;
6420;SDS011;3243;50.958;7.012;2023-02-15T04:05:20;35.20;;;20.83;;
6420;SDS011;3243;50.958;7.012;2023-02-15T04:07:47;41.07;;;22.60;;
6420;SDS011;3243;50.958;7.012;2023-02-15T04:10:14;39.13;;;21.43;;
6420;SDS011;3243;50.958;7.012;2023-02-15T04:12:59;36.73;;;20.70;;
6420;SDS011;3243;50.958;7.012;2023-02-15T04:15:25;39.43;;;21.67;;
6420;SDS011;3243;50.958;7.012;2023-02-15T04:18:10;38.43;;;21.00;;
6420;SDS011;3243;50.958;7.012;2023-02-15T04:20:37;37.13;;;20.80;;
6420;SDS011;3243;50.958;7.012;2023-02-15T04:23:22;37.77;;;20.67;;
6420;SDS011;3243;50.958;7.012;2023-02-15T04:26:07;38.30;;;21.87;;
6420;SDS011;3243;50.958;7.012;2023-02-15T04:28:34;40.43;;;21.80;;
6420;SDS011;3243;50.958;7.012;2023-02-15T04:31:01;37.47;;;21.90;;
6420;SDS011;3243;50.958;7.012;2023-02-15T04:33:28;36.67;;;20.40;;
6420;SDS011;3243;50.958;7.012;2023-02-15T04:35:55;43.50;;;21.43;;
6420;SDS011;3243;50.958;7.012;2023-02-15T04:38:22;37.37;;;20.77;;
6420;SDS011;3243;50.958;7.012;2023-02-15T04:40:50;34.53;;;19.83;;
6420;SDS011;3243;50.958;7.012;2023-02-15T04:43:18;37.67;;;20.87;;
6420;SDS011;3243;50.958;7.012;2023-02-15T04:45:48;37.93;;;21.07;;
6420;SDS011;3243;50.958;7.012;2023-02-15T04:48:17;33.30;;;20.27;;
6420;SDS011;3243;50.958;7.012;2023-02-15T04:50:44;37.93;;;21.17;;
6420;SDS011;3243;50.958;7.012;2023-02-15T04:53:11;35.63;;;20.47;;
6420;SDS011;3243;50.958;7.012;2023-02-15T04:55:37;35.53;;;20.13;;
6420;SDS011;3243;50.958;7.012;2023-02-15T04:58:04;39.03;;;21.13;;
6420;SDS011;3243;50.958;7.012;2023-02-15T05:00:31;36.27;;;21.00;;
6420;SDS011;3243;50.958;7.012;2023-02-15T05:02:58;42.57;;;21.97;;
6420;SDS011;3243;50.958;7.012;2023-02-15T05:05:24;35.47;;;21.07;;
6420;SDS011;3243;50.958;7.012;2023-02-15T05:07:51;34.77;;;19.33;;
6420;SDS011;3243;50.958;7.012;2023-02-15T05:10:18;38.60;;;20.93;;
6420;SDS011;3243;50.958;7.012;2023-02-15T05:12:45;38.70;;;20.67;;
6420;SDS011;3243;50.958;7.012;2023-02-15T05:15:12;35.17;;;20.27;;
6420;SDS011;3243;50.958;7.012;2023-02-15T05:17:39;39.07;;;20.53;;
6420;SDS011;3243;50.958;7.012;2023-02-15T05:20:06;31.77;;;19.20;;
6420;SDS011;3243;50.958;7.012;2023-02-15T05:22:33;37.87;;;20.50;;
6420;SDS011;3243;50.958;7.012;2023-02-15T05:25:00;34.10;;;20.53;;
6420;SDS011;3243;50.958;7.012;2023-02-15T05:27:45;33.67;;;19.67;;
6420;SDS011;3243;50.958;7.012;2023-02-15T05:30:31;33.67;;;19.87;;
6420;SDS011;3243;50.958;7.012;2023-02-15T05:32:58;38.80;;;21.30;;
6420;SDS011;3243;50.958;7.012;2023-02-15T05:35:25;34.03;;;19.37;;
6420;SDS011;3243;50.958;7.012;2023-02-15T05:37:51;35.07;;;19.67;;
6420;SDS011;3243;50.958;7.012;2023-02-15T05:40:18;38.07;;;20.63;;
6420;SDS011;3243;50.958;7.012;2023-02-15T05:42:45;35.43;;;20.27;;
6420;SDS011;3243;50.958;7.012;2023-02-15T05:45:12;36.20;;;20.27;;
6420;SDS011;3243;50.958;7.012;2023-02-15T05:47:38;36.83;;;20.70;;
6420;SDS011;3243;50.958;7.012;2023-02-15T05:50:05;35.87;;;20.57;;
6420;SDS011;3243;50.958;7.012;2023-02-15T05:52:32;38.07;;;18.70;;
6420;SDS011;3243;50.958;7.012;2023-02-15T05:54:59;35.33;;;20.67;;
6420;SDS011;3243;50.958;7.012;2023-02-15T05:57:26;33.90;;;20.17;;
6420;SDS011;3243;50.958;7.012;2023-02-15T05:59:53;40.13;;;21.13;;
6420;SDS011;3243;50.958;7.012;2023-02-15T06:02:20;36.10;;;19.67;;
6420;SDS011;3243;50.958;7.012;2023-02-15T06:04:46;35.57;;;20.33;;
6420;SDS011;3243;50.958;7.012;2023-02-15T06:07:13;36.53;;;20.83;;
6420;SDS011;3243;50.958;7.012;2023-02-15T06:09:40;34.23;;;19.40;;
6420;SDS011;3243;50.958;7.012;2023-02-15T06:12:07;35.30;;;19.83;;
6420;SDS011;3243;50.958;7.012;2023-02-15T06:14:33;33.43;;;19.87;;
6420;SDS011;3243;50.958;7.012;2023-02-15T06:17:00;33.03;;;19.20;;
6420;SDS011;3243;50.958;7.012;2023-02-15T06:19:27;34.57;;;19.90;;
6420;SDS011;3243;50.958;7.012;2023-02-15T06:21:53;36.23;;;19.60;;
6420;SDS011;3243;50.958;7.012;2023-02-15T06:24:20;36.63;;;20.03;;
6420;SDS011;3243;50.958;7.012;2023-02-15T06:26:47;34.47;;;19.63;;
6420;SDS011;3243;50.958;7.012;2023-02-15T06:29:13;39.23;;;20.33;;
6420;SDS011;3243;50.958;7.012;2023-02-15T06:31:40;32.33;;;18.70;;
6420;SDS011;3243;50.958;7.012;2023-02-15T06:34:07;35.23;;;19.73;;
6420;SDS011;3243;50.958;7.012;2023-02-15T06:36:34;32.63;;;18.73;;
6420;SDS011;3243;50.958;7.012;2023-02-15T06:39:01;33.60;;;18.83;;
6420;SDS011;3243;50.958;7.012;2023-02-15T06:41:29;34.33;;;19.67;;
6420;SDS011;3243;50.958;7.012;2023-02-15T06:43:56;29.90;;;18.40;;
6420;SDS011;3243;50.958;7.012;2023-02-15T06:46:22;32.63;;;19.30;;
6420;SDS011;3243;50.958;7.012;2023-02-15T06:48:49;34.17;;;18.03;;
6420;SDS011;3243;50.958;7.012;2023-02-15T06:51:16;32.93;;;18.80;;
6420;SDS011;3243;50.958;7.012;2023-02-15T06:53:43;30.27;;;18.43;;
6420;SDS011;3243;50.958;7.012;2023-02-15T06:56:10;35.10;;;20.07;;
6420;SDS011;3243;50.958;7.012;2023-02-15T06:58:40;32.80;;;18.43;;
6420;SDS011;3243;50.958;7.012;2023-02-15T07:01:08;32.90;;;19.37;;
6420;SDS011;3243;50.958;7.012;2023-02-15T07:03:35;32.37;;;18.67;;
6420;SDS011;3243;50.958;7.012;2023-02-15T07:06:02;33.00;;;19.17;;
6420;SDS011;3243;50.958;7.012;2023-02-15T07:08:32;30.70;;;18.00;;
6420;SDS011;3243;50.958;7.012;2023-02-15T07:10:58;33.03;;;18.90;;
6420;SDS011;3243;50.958;7.012;2023-02-15T07:13:46;28.27;;;16.50;;
6420;SDS011;3243;50.958;7.012;2023-02-15T07:16:13;35.50;;;18.63;;
6420;SDS011;3243;50.958;7.012;2023-02-15T07:18:40;30.53;;;17.70;;
6420;SDS011;3243;50.958;7.012;2023-02-15T07:21:06;32.17;;;18.97;;
6420;SDS011;3243;50.958;7.012;2023-02-15T07:23:37;35.67;;;19.30;;
6420;SDS011;3243;50.958;7.012;2023-02-15T07:26:05;29.77;;;17.30;;
6420;SDS011;3243;50.958;7.012;2023-02-15T07:28:33;30.50;;;17.77;;
6420;SDS011;3243;50.958;7.012;2023-02-15T07:31:01;29.87;;;17.43;;
6420;SDS011;3243;50.958;7.012;2023-02-15T07:33:32;27.53;;;17.63;;
6420;SDS011;3243;50.958;7.012;2023-02-15T07:36:00;29.57;;;17.67;;
6420;SDS011;3243;50.958;7.012;2023-02-15T07:38:30;28.57;;;16.33;;
6420;SDS011;3243;50.958;7.012;2023-02-15T07:40:59;29.43;;;17.17;;
6420;SDS011;3243;50.958;7.012;2023-02-15T07:43:27;29.23;;;18.63;;
6420;SDS011;3243;50.958;7.012;2023-02-15T07:46:15;29.07;;;17.57;;
6420;SDS011;3243;50.958;7.012;2023-02-15T07:48:43;26.77;;;16.93;;
6420;SDS011;3243;50.958;7.012;2023-02-15T07:51:10;29.97;;;17.77;;
6420;SDS011;3243;50.958;7.012;2023-02-15T07:53:38;27.87;;;16.67;;
6420;SDS011;3243;50.958;7.012;2023-02-15T07:56:07;28.50;;;17.43;;
6420;SDS011;3243;50.958;7.012;2023-02-15T07:58:36;26.73;;;16.03;;
6420;SDS011;3243;50.958;7.012;2023-02-15T08:03:45;26.67;;;16.77;;
6420;SDS011;3243;50.958;7.012;2023-02-15T08:06:12;24.50;;;15.43;;
6420;SDS011;3243;50.958;7.012;2023-02-15T08:08:39;27.40;;;16.93;;
6420;SDS011;3243;50.958;7.012;2023-02-15T08:11:14;26.80;;;17.00;;
6420;SDS011;3243;50.958;7.012;2023-02-15T08:13:59;25.97;;;15.40;;
6420;SDS011;3243;50.958;7.012;2023-02-15T08:16:37;24.03;;;15.37;;
6420;SDS011;3243;50.958;7.012;2023-02-15T08:21:33;23.43;;;15.17;;
6420;SDS011;3243;50.958;7.012;2023-02-15T08:24:01;27.23;;;15.93;;
6420;SDS011;3243;50.958;7.012;2023-02-15T08:26:29;24.20;;;15.43;;
6420;SDS011;3243;50.958;7.012;2023-02-15T08:28:57;24.13;;;14.80;;
6420;SDS011;3243;50.958;7.012;2023-02-15T08:31:25;22.37;;;15.13;;
6420;SDS011;3243;50.958;7.012;2023-02-15T08:33:53;24.40;;;15.00;;
6420;SDS011;3243;50.958;7.012;2023-02-15T08:36:22;22.13;;;14.43;;
6420;SDS011;3243;50.958;7.012;2023-02-15T08:38:50;22.33;;;14.90;;
6420;SDS011;3243;50.958;7.012;2023-02-15T08:41:18;21.67;;;13.43;;
6420;SDS011;3243;50.958;7.012;2023-02-15T08:43:57;25.23;;;14.83;;
6420;SDS011;3243;50.958;7.012;2023-02-15T08:46:26;21.33;;;14.27;;
6420;SDS011;3243;50.958;7.012;2023-02-15T08:48:55;21.80;;;13.33;;
6420;SDS011;3243;50.958;7.012;2023-02-15T08:51:23;21.00;;;14.10;;
6420;SDS011;3243;50.958;7.012;2023-02-15T08:53:52;22.63;;;13.60;;
6420;SDS011;3243;50.958;7.012;2023-02-15T08:56:24;19.53;;;13.27;;
6420;SDS011;3243;50.958;7.012;2023-02-15T08:58:54;19.20;;;12.70;;
6420;SDS011;3243;50.958;7.012;2023-02-15T09:01:26;20.50;;;13.77;;
6420;SDS011;3243;50.958;7.012;2023-02-15T09:04:01;21.20;;;13.50;;
6420;SDS011;3243;50.958;7.012;2023-02-15T09:06:30;19.27;;;13.47;;
6420;SDS011;3243;50.958;7.012;2023-02-15T09:08:57;20.37;;;12.90;;
6420;SDS011;3243;50.958;7.012;2023-02-15T09:11:25;19.83;;;13.37;;
6420;SDS011;3243;50.958;7.012;2023-02-15T09:13:58;20.93;;;13.50;;
6420;SDS011;3243;50.958;7.012;2023-02-15T09:16:28;18.13;;;13.20;;
6420;SDS011;3243;50.958;7.012;2023-02-15T09:18:56;19.60;;;13.00;;
6420;SDS011;3243;50.958;7.012;2023-02-15T09:21:27;20.50;;;12.73;;
6420;SDS011;3243;50.958;7.012;2023-02-15T09:23:55;20.57;;;12.57;;
6420;SDS011;3243;50.958;7.012;2023-02-15T09:26:28;18.53;;;12.37;;
6420;SDS011;3243;50.958;7.012;2023-02-15T09:28:57;16.23;;;11.73;;
6420;SDS011;3243;50.958;7.012;2023-02-15T09:31:28;21.37;;;12.70;;
6420;SDS011;3243;50.958;7.012;2023-02-15T09:33:57;19.53;;;12.10;;
6420;SDS011;3243;50.958;7.012;2023-02-15T09:36:31;17.70;;;11.67;;
6420;SDS011;3243;50.958;7.012;2023-02-15T09:39:10;17.50;;;11.90;;
6420;SDS011;3243;50.958;7.012;2023-02-15T10:04:18;19.07;;;12.10;;
6420;SDS011;3243;50.958;7.012;2023-02-15T10:09:49;15.93;;;11.53;;
6420;SDS011;3243;50.958;7.012;2023-02-15T10:18:05;15.07;;;10.43;;
6420;SDS011;3243;50.958;7.012;2023-02-15T10:20:58;17.23;;;11.47;;
6420;SDS011;3243;50.958;7.012;2023-02-15T10:23:53;17.93;;;10.67;;
6420;SDS011;3243;50.958;7.012;2023-02-15T10:26:45;15.37;;;10.63;;
6420;SDS011;3243;50.958;7.012;2023-02-15T10:31:59;19.00;;;11.00;;
6420;SDS011;3243;50.958;7.012;2023-02-15T10:34:39;17.00;;;11.17;;
6420;SDS011;3243;50.958;7.012;2023-02-15T10:56:12;16.47;;;10.47;;
6420;SDS011;3243;50.958;7.012;2023-02-15T11:01:18;14.80;;;9.63;;
6420;SDS011;3243;50.958;7.012;2023-02-15T11:06:43;17.57;;;10.27;;
6420;SDS011;3243;50.958;7.012;2023-02-15T11:09:17;15.90;;;9.67;;
6420;SDS011;3243;50.958;7.012;2023-02-15T11:11:50;14.70;;;10.20;;
6420;SDS011;3243;50.958;7.012;2023-02-15T11:17:21;14.80;;;10.43;;
6420;SDS011;3243;50.958;7.012;2023-02-15T11:22:48;14.47;;;10.10;;
6420;SDS011;3243;50.958;7.012;2023-02-15T11:25:20;16.00;;;10.93;;
6420;SDS011;3243;50.958;7.012;2023-02-15T11:27:58;14.97;;;10.10;;
6420;SDS011;3243;50.958;7.012;2023-02-15T11:31:10;15.17;;;10.40;;
6420;SDS011;3243;50.958;7.012;2023-02-15T11:33:29;16.63;;;10.33;;
6420;SDS011;3243;50.958;7.012;2023-02-15T11:36:11;12.93;;;9.23;;
6420;SDS011;3243;50.958;7.012;2023-02-15T11:38:43;15.50;;;9.53;;
6420;SDS011;3243;50.958;7.012;2023-02-15T11:41:14;16.97;;;10.03;;
6420;SDS011;3243;50.958;7.012;2023-02-15T11:44:05;14.93;;;10.23;;
6420;SDS011;3243;50.958;7.012;2023-02-15T11:46:38;22.83;;;10.73;;
6420;SDS011;3243;50.958;7.012;2023-02-15T11:52:10;14.63;;;9.70;;
6420;SDS011;3243;50.958;7.012;2023-02-15T11:54:42;13.67;;;10.00;;
6420;SDS011;3243;50.958;7.012;2023-02-15T11:57:17;17.07;;;10.17;;
6420;SDS011;3243;50.958;7.012;2023-02-15T11:59:55;14.53;;;10.57;;
6420;SDS011;3243;50.958;7.012;2023-02-15T12:02:27;14.90;;;10.17;;
6420;SDS011;3243;50.958;7.012;2023-02-15T12:04:57;13.37;;;9.60;;
6420;SDS011;3243;50.958;7.012;2023-02-15T12:07:44;13.07;;;9.90;;
6420;SDS011;3243;50.958;7.012;2023-02-15T12:13:27;20.60;;;10.80;;
6420;SDS011;3243;50.958;7.012;2023-02-15T12:15:48;15.37;;;10.40;;
6420;SDS011;3243;50.958;7.012;2023-02-15T12:21:07;13.83;;;9.40;;
6420;SDS011;3243;50.958;7.012;2023-02-15T12:23:52;17.60;;;9.80;;
6420;SDS011;3243;50.958;7.012;2023-02-15T12:26:25;19.23;;;10.10;;
6420;SDS011;3243;50.958;7.012;2023-02-15T12:28:52;12.73;;;9.47;;
6420;SDS011;3243;50.958;7.012;2023-02-15T12:31:28;12.43;;;9.37;;
6420;SDS011;3243;50.958;7.012;2023-02-15T12:34:03;16.10;;;9.73;;
6420;SDS011;3243;50.958;7.012;2023-02-15T12:36:42;18.80;;;10.90;;
6420;SDS011;3243;50.958;7.012;2023-02-15T12:44:24;13.83;;;9.80;;
6420;SDS011;3243;50.958;7.012;2023-02-15T12:49:31;15.73;;;10.23;;
6420;SDS011;3243;50.958;7.012;2023-02-15T12:52:10;14.63;;;9.70;;
6420;SDS011;3243;50.958;7.012;2023-02-15T12:54:51;17.77;;;10.17;;
6420;SDS011;3243;50.958;7.012;2023-02-15T12:59:53;17.07;;;10.10;;
6420;SDS011;3243;50.958;7.012;2023-02-15T13:02:21;14.57;;;9.90;;
6420;SDS011;3243;50.958;7.012;2023-02-15T13:04:54;17.37;;;9.83;;
6420;SDS011;3243;50.958;7.012;2023-02-15T13:07:24;19.93;;;10.70;;
6420;SDS011;3243;50.958;7.012;2023-02-15T13:09:56;15.03;;;9.93;;
6420;SDS011;3243;50.958;7.012;2023-02-15T13:12:24;13.50;;;9.07;;
6420;SDS011;3243;50.958;7.012;2023-02-15T13:14:54;15.70;;;10.37;;
6420;SDS011;3243;50.958;7.012;2023-02-15T13:17:26;15.07;;;9.50;;
6420;SDS011;3243;50.958;7.012;2023-02-15T13:20:04;13.07;;;9.17;;
6420;SDS011;3243;50.958;7.012;2023-02-15T13:22:39;16.03;;;9.87;;
6420;SDS011;3243;50.958;7.012;2023-02-15T13:25:10;14.40;;;9.67;;
6420;SDS011;3243;50.958;7.012;2023-02-15T13:27:48;14.63;;;9.87;;
6420;SDS011;3243;50.958;7.012;2023-02-15T13:30:23;16.43;;;10.30;;
6420;SDS011;3243;50.958;7.012;2023-02-15T13:33:00;14.60;;;9.23;;
6420;SDS011;3243;50.958;7.012;2023-02-15T13:41:14;14.40;;;9.00;;
6420;SDS011;3243;50.958;7.012;2023-02-15T13:49:23;13.27;;;9.53;;
6420;SDS011;3243;50.958;7.012;2023-02-15T13:52:21;12.63;;;9.57;;
6420;SDS011;3243;50.958;7.012;2023-02-15T14:03:43;13.10;;;9.37;;
6420;SDS011;3243;50.958;7.012;2023-02-15T14:15:05;14.67;;;9.60;;
6420;SDS011;3243;50.958;7.012;2023-02-15T14:25:59;13.93;;;9.77;;
6420;SDS011;3243;50.958;7.012;2023-02-15T14:31:34;14.90;;;9.67;;
6420;SDS011;3243;50.958;7.012;2023-02-15T14:34:09;14.00;;;9.43;;
6420;SDS011;3243;50.958;7.012;2023-02-15T14:36:50;15.60;;;9.77;;
6420;SDS011;3243;50.958;7.012;2023-02-15T14:39:28;13.33;;;9.50;;
6420;SDS011;3243;50.958;7.012;2023-02-15T14:42:18;15.70;;;10.00;;
6420;SDS011;3243;50.958;7.012;2023-02-15T14:47:48;13.70;;;9.30;;
6420;SDS011;3243;50.958;7.012;2023-02-15T14:55:44;13.13;;;8.87;;
6420;SDS011;3243;50.958;7.012;2023-02-15T14:58:12;12.97;;;9.17;;
6420;SDS011;3243;50.958;7.012;2023-02-15T15:00:40;14.67;;;9.17;;
6420;SDS011;3243;50.958;7.012;2023-02-15T15:03:12;13.13;;;9.20;;
6420;SDS011;3243;50.958;7.012;2023-02-15T15:05:50;14.17;;;9.60;;
6420;SDS011;3243;50.958;7.012;2023-02-15T15:08:21;15.80;;;9.13;;
6420;SDS011;3243;50.958;7.012;2023-02-15T15:10:54;14.73;;;9.67;;
6420;SDS011;3243;50.958;7.012;2023-02-15T15:18:56;14.43;;;9.83;;
6420;SDS011;3243;50.958;7.012;2023-02-15T15:32:42;14.47;;;9.03;;
6420;SDS011;3243;50.958;7.012;2023-02-15T15:49:00;12.67;;;8.93;;
6420;SDS011;3243;50.958;7.012;2023-02-15T15:51:41;13.73;;;9.30;;
6420;SDS011;3243;50.958;7.012;2023-02-15T15:54:14;12.50;;;8.73;;
6420;SDS011;3243;50.958;7.012;2023-02-15T15:56:44;14.63;;;9.43;;
6420;SDS011;3243;50.958;7.012;2023-02-15T15:59:22;14.40;;;9.50;;
6420;SDS011;3243;50.958;7.012;2023-02-15T16:01:52;13.63;;;9.70;;
6420;SDS011;3243;50.958;7.012;2023-02-15T16:04:23;13.90;;;9.77;;
6420;SDS011;3243;50.958;7.012;2023-02-15T16:07:13;13.23;;;9.87;;
6420;SDS011;3243;50.958;7.012;2023-02-15T16:09:55;12.63;;;9.37;;
6420;SDS011;3243;50.958;7.012;2023-02-15T16:12:35;14.30;;;10.30;;
6420;SDS011;3243;50.958;7.012;2023-02-15T16:15:14;13.60;;;9.93;;
6420;SDS011;3243;50.958;7.012;2023-02-15T16:17:43;16.90;;;10.07;;
6420;SDS011;3243;50.958;7.012;2023-02-15T16:20:15;16.50;;;9.70;;
6420;SDS011;3243;50.958;7.012;2023-02-15T16:22:49;15.30;;;9.93;;
6420;SDS011;3243;50.958;7.012;2023-02-15T16:25:30;16.83;;;10.63;;
6420;SDS011;3243;50.958;7.012;2023-02-15T16:28:20;15.03;;;10.00;;
6420;SDS011;3243;50.958;7.012;2023-02-15T16:30:54;15.30;;;10.67;;
6420;SDS011;3243;50.958;7.012;2023-02-15T16:33:39;16.23;;;11.00;;
6420;SDS011;3243;50.958;7.012;2023-02-15T16:36:26;14.57;;;9.87;;
6420;SDS011;3243;50.958;7.012;2023-02-15T16:43:48;16.50;;;10.87;;
6420;SDS011;3243;50.958;7.012;2023-02-15T16:46:18;15.67;;;11.07;;
6420;SDS011;3243;50.958;7.012;2023-02-15T16:48:52;14.53;;;10.37;;
6420;SDS011;3243;50.958;7.012;2023-02-15T16:51:23;14.53;;;10.17;;
6420;SDS011;3243;50.958;7.012;2023-02-15T16:53:54;15.37;;;10.40;;
6420;SDS011;3243;50.958;7.012;2023-02-15T16:56:23;15.67;;;10.67;;
6420;SDS011;3243;50.958;7.012;2023-02-15T16:58:53;16.37;;;10.70;;
6420;SDS011;3243;50.958;7.012;2023-02-15T17:01:22;15.80;;;10.93;;
6420;SDS011;3243;50.958;7.012;2023-02-15T17:04:10;16.90;;;10.57;;
6420;SDS011;3243;50.958;7.012;2023-02-15T17:06:40;15.00;;;10.83;;
6420;SDS011;3243;50.958;7.012;2023-02-15T17:09:13;15.80;;;11.10;;
6420;SDS011;3243;50.958;7.012;2023-02-15T17:11:46;17.53;;;11.47;;
6420;SDS011;3243;50.958;7.012;2023-02-15T17:14:16;14.53;;;10.50;;
6420;SDS011;3243;50.958;7.012;2023-02-15T17:16:53;17.20;;;11.30;;
6420;SDS011;3243;50.958;7.012;2023-02-15T17:19:26;15.63;;;11.00;;
6420;SDS011;3243;50.958;7.012;2023-02-15T17:21:59;16.27;;;11.50;;
6420;SDS011;3243;50.958;7.012;2023-02-15T17:27:07;17.63;;;11.30;;
6420;SDS011;3243;50.958;7.012;2023-02-15T17:29:46;15.43;;;10.73;;
6420;SDS011;3243;50.958;7.012;2023-02-15T17:32:19;16.07;;;11.47;;
6420;SDS011;3243;50.958;7.012;2023-02-15T17:39:53;16.57;;;11.63;;
6420;SDS011;3243;50.958;7.012;2023-02-15T17:42:20;19.10;;;12.23;;
6420;SDS011;3243;50.958;7.012;2023-02-15T17:44:47;19.10;;;12.87;;
6420;SDS011;3243;50.958;7.012;2023-02-15T17:47:18;17.03;;;11.73;;
6420;SDS011;3243;50.958;7.012;2023-02-15T17:49:47;17.83;;;11.33;;
6420;SDS011;3243;50.958;7.012;2023-02-15T17:52:17;18.67;;;12.27;;
6420;SDS011;3243;50.958;7.012;2023-02-15T17:54:44;16.13;;;11.13;;
6420;SDS011;3243;50.958;7.012;2023-02-15T17:57:30;15.70;;;11.77;;
6420;SDS011;3243;50.958;7.012;2023-02-15T17:59:58;17.83;;;11.83;;
6420;SDS011;3243;50.958;7.012;2023-02-15T18:02:43;19.93;;;11.83;;
6420;SDS011;3243;50.958;7.012;2023-02-15T18:05:29;18.57;;;11.93;;
6420;SDS011;3243;50.958;7.012;2023-02-15T18:08:15;16.50;;;11.23;;
6420;SDS011;3243;50.958;7.012;2023-02-15T18:11:03;16.80;;;11.47;;
6420;SDS011;3243;50.958;7.012;2023-02-15T18:13:49;21.27;;;11.80;;
6420;SDS011;3243;50.958;7.012;2023-02-15T18:16:20;16.70;;;11.50;;
6420;SDS011;3243;50.958;7.012;2023-02-15T18:18:49;17.63;;;12.20;;
6420;SDS011;3243;50.958;7.012;2023-02-15T18:21:17;20.37;;;11.60;;
6420;SDS011;3243;50.958;7.012;2023-02-15T18:23:44;17.90;;;11.57;;
6420;SDS011;3243;50.958;7.012;2023-02-15T18:26:21;15.57;;;11.23;;
6420;SDS011;3243;50.958;7.012;2023-02-15T18:28:49;19.03;;;11.33;;
6420;SDS011;3243;50.958;7.012;2023-02-15T18:31:16;16.03;;;11.23;;
6420;SDS011;3243;50.958;7.012;2023-02-15T18:33:45;16.93;;;12.10;;
6420;SDS011;3243;50.958;7.012;2023-02-15T18:36:24;16.10;;;11.33;;
6420;SDS011;3243;50.958;7.012;2023-02-15T18:38:58;19.20;;;12.20;;
6420;SDS011;3243;50.958;7.012;2023-02-15T18:41:32;17.00;;;11.60;;
6420;SDS011;3243;50.958;7.012;2023-02-15T18:43:58;18.67;;;11.97;;
6420;SDS011;3243;50.958;7.012;2023-02-15T18:46:25;16.67;;;11.47;;
6420;SDS011;3243;50.958;7.012;2023-02-15T18:48:52;18.33;;;12.63;;
6420;SDS011;3243;50.958;7.012;2023-02-15T18:51:20;16.63;;;11.80;;
6420;SDS011;3243;50.958;7.012;2023-02-15T18:53:49;16.40;;;11.67;;
6420;SDS011;3243;50.958;7.012;2023-02-15T18:56:18;18.80;;;12.00;;
6420;SDS011;3243;50.958;7.012;2023-02-15T18:58:47;20.13;;;13.00;;